sensor_id;sensor_type;location;lat;lon;timestamp;P1;durP1;ratioP1;P2;durP2;ratioP2
44126;SDS011;29786;50.798;7.302;2022-10-22T00:00:19;8.6;;;4.9;;
44126;SDS011;29786;50.798;7.302;2022-10-22T00:01:19;7.5;;;5.2;;
44126;SDS011;29786;50.798;7.302;2022-10-22T00:02:19;6.7;;;4.9;;
44126;SDS011;29786;50.798;7.302;2022-10-22T00:03:20;8.6;;;5;;
44126;SDS011;29786;50.798;7.302;2022-10-22T00:04:19;10;;;4.4;;
44126;SDS011;29786;50.798;7.302;2022-10-22T00:05:19;8.2;;;4.6;;
44126;SDS011;29786;50.798;7.302;2022-10-22T00:06:19;11.7;;;5.2;;
44126;SDS011;29786;50.798;7.302;2022-10-22T00:07:20;9.6;;;5;;
44126;SDS011;29786;50.798;7.302;2022-10-22T00:08:19;13.9;;;6.1;;
44126;SDS011;29786;50.798;7.302;2022-10-22T00:09:19;8.9;;;4.9;;
44126;SDS011;29786;50.798;7.302;2022-10-22T00:10:19;8.1;;;4.7;;
44126;SDS011;29786;50.798;7.302;2022-10-22T00:11:19;8.5;;;5.6;;
44126;SDS011;29786;50.798;7.302;2022-10-22T00:12:19;9.7;;;4.9;;
44126;SDS011;29786;50.798;7.302;2022-10-22T00:13:19;9;;;5.2;;
44126;SDS011;29786;50.798;7.302;2022-10-22T00:14:19;10.2;;;5.6;;
44126;SDS011;29786;50.798;7.302;2022-10-22T00:15:19;9.1;;;5.7;;
44126;SDS011;29786;50.798;7.302;2022-10-22T00:16:19;11.2;;;5.4;;
44126;SDS011;29786;50.798;7.302;2022-10-22T00:17:19;9.1;;;5.1;;
44126;SDS011;29786;50.798;7.302;2022-10-22T00:18:19;8.4;;;5.1;;
44126;SDS011;29786;50.798;7.302;2022-10-22T00:19:19;13.9;;;5.4;;
44126;SDS011;29786;50.798;7.302;2022-10-22T00:20:19;13.5;;;5.2;;
44126;SDS011;29786;50.798;7.302;2022-10-22T00:21:19;14.2;;;5.2;;
44126;SDS011;29786;50.798;7.302;2022-10-22T00:22:19;12.2;;;4.9;;
44126;SDS011;29786;50.798;7.302;2022-10-22T00:23:19;8.8;;;5;;
44126;SDS011;29786;50.798;7.302;2022-10-22T00:24:19;10.1;;;5.7;;
44126;SDS011;29786;50.798;7.302;2022-10-22T00:25:19;8.3;;;4.9;;
44126;SDS011;29786;50.798;7.302;2022-10-22T00:26:20;7;;;5.2;;
44126;SDS011;29786;50.798;7.302;2022-10-22T00:27:19;10.1;;;6.3;;
44126;SDS011;29786;50.798;7.302;2022-10-22T00:28:19;7.6;;;5;;
44126;SDS011;29786;50.798;7.302;2022-10-22T00:29:19;8.6;;;5.3;;
44126;SDS011;29786;50.798;7.302;2022-10-22T00:30:19;9.2;;;5.4;;
44126;SDS011;29786;50.798;7.302;2022-10-22T00:31:19;9;;;5.4;;
44126;SDS011;29786;50.798;7.302;2022-10-22T00:32:19;12.2;;;5.3;;
44126;SDS011;29786;50.798;7.302;2022-10-22T00:33:19;9.9;;;5.3;;
44126;SDS011;29786;50.798;7.302;2022-10-22T00:34:20;11.4;;;5.7;;
44126;SDS011;29786;50.798;7.302;2022-10-22T00:35:19;11.3;;;5.7;;
44126;SDS011;29786;50.798;7.302;2022-10-22T00:36:19;8;;;5.4;;
44126;SDS011;29786;50.798;7.302;2022-10-22T00:37:19;8.5;;;5.4;;
44126;SDS011;29786;50.798;7.302;2022-10-22T00:38:19;8.8;;;5.4;;
44126;SDS011;29786;50.798;7.302;2022-10-22T00:39:21;11.6;;;5.8;;
44126;SDS011;29786;50.798;7.302;2022-10-22T00:40:20;8.7;;;5;;
44126;SDS011;29786;50.798;7.302;2022-10-22T00:41:19;8.5;;;5.4;;
44126;SDS011;29786;50.798;7.302;2022-10-22T00:42:21;12;;;5.1;;
44126;SDS011;29786;50.798;7.302;2022-10-22T00:43:20;9.6;;;4.9;;
44126;SDS011;29786;50.798;7.302;2022-10-22T00:45:22;8.3;;;5.6;;
44126;SDS011;29786;50.798;7.302;2022-10-22T00:45:25;9;;;5.1;;
44126;SDS011;29786;50.798;7.302;2022-10-22T00:46:20;9.2;;;5.1;;
44126;SDS011;29786;50.798;7.302;2022-10-22T00:47:20;9.9;;;5.3;;
44126;SDS011;29786;50.798;7.302;2022-10-22T00:48:21;10.7;;;6.3;;
44126;SDS011;29786;50.798;7.302;2022-10-22T00:49:20;10.3;;;5.3;;
44126;SDS011;29786;50.798;7.302;2022-10-22T00:50:53;11.2;;;5.9;;
44126;SDS011;29786;50.798;7.302;2022-10-22T00:51:20;10;;;5.3;;
44126;SDS011;29786;50.798;7.302;2022-10-22T00:52:20;11.2;;;5.4;;
44126;SDS011;29786;50.798;7.302;2022-10-22T00:53:21;10;;;5.3;;
44126;SDS011;29786;50.798;7.302;2022-10-22T00:54:19;8.3;;;5.3;;
44126;SDS011;29786;50.798;7.302;2022-10-22T00:55:19;12.8;;;5.4;;
44126;SDS011;29786;50.798;7.302;2022-10-22T00:56:19;11.7;;;5.2;;
44126;SDS011;29786;50.798;7.302;2022-10-22T00:57:19;6.9;;;4.8;;
44126;SDS011;29786;50.798;7.302;2022-10-22T00:58:20;7.4;;;5.3;;
44126;SDS011;29786;50.798;7.302;2022-10-22T00:59:19;12;;;5;;
44126;SDS011;29786;50.798;7.302;2022-10-22T01:00:19;7.7;;;5.1;;
44126;SDS011;29786;50.798;7.302;2022-10-22T01:01:20;7.3;;;4.6;;
44126;SDS011;29786;50.798;7.302;2022-10-22T01:02:20;10;;;4.7;;
44126;SDS011;29786;50.798;7.302;2022-10-22T01:03:20;6.6;;;4.8;;
44126;SDS011;29786;50.798;7.302;2022-10-22T01:04:19;9.1;;;4.7;;
44126;SDS011;29786;50.798;7.302;2022-10-22T01:05:20;9.5;;;4.5;;
44126;SDS011;29786;50.798;7.302;2022-10-22T01:06:24;8.9;;;5.2;;
44126;SDS011;29786;50.798;7.302;2022-10-22T01:07:20;7.8;;;5.8;;
44126;SDS011;29786;50.798;7.302;2022-10-22T01:08:24;8.8;;;5.7;;
44126;SDS011;29786;50.798;7.302;2022-10-22T01:09:24;9;;;5;;
44126;SDS011;29786;50.798;7.302;2022-10-22T01:11:31;9.4;;;4.7;;
44126;SDS011;29786;50.798;7.302;2022-10-22T01:12:22;6.1;;;4.5;;
44126;SDS011;29786;50.798;7.302;2022-10-22T01:13:23;7;;;4.8;;
44126;SDS011;29786;50.798;7.302;2022-10-22T01:14:24;9.4;;;5.2;;
44126;SDS011;29786;50.798;7.302;2022-10-22T01:15:21;9;;;5;;
44126;SDS011;29786;50.798;7.302;2022-10-22T01:16:23;10.3;;;5.5;;
44126;SDS011;29786;50.798;7.302;2022-10-22T01:17:22;8.4;;;5;;
44126;SDS011;29786;50.798;7.302;2022-10-22T01:18:24;10.3;;;5.2;;
44126;SDS011;29786;50.798;7.302;2022-10-22T01:19:28;8.4;;;4.7;;
44126;SDS011;29786;50.798;7.302;2022-10-22T01:20:24;10.9;;;5.7;;
44126;SDS011;29786;50.798;7.302;2022-10-22T01:21:25;6.8;;;5.3;;
44126;SDS011;29786;50.798;7.302;2022-10-22T01:23:23;9;;;5.1;;
44126;SDS011;29786;50.798;7.302;2022-10-22T01:24:24;11.7;;;5.2;;
44126;SDS011;29786;50.798;7.302;2022-10-22T01:25:27;10.2;;;5.1;;
44126;SDS011;29786;50.798;7.302;2022-10-22T01:26:23;10.7;;;4.8;;
44126;SDS011;29786;50.798;7.302;2022-10-22T01:28:23;6.7;;;4.8;;
44126;SDS011;29786;50.798;7.302;2022-10-22T01:29:21;7.8;;;4.5;;
44126;SDS011;29786;50.798;7.302;2022-10-22T01:30:19;10.8;;;5.2;;
44126;SDS011;29786;50.798;7.302;2022-10-22T01:31:20;7.7;;;4.6;;
44126;SDS011;29786;50.798;7.302;2022-10-22T01:32:21;9.6;;;5.2;;
44126;SDS011;29786;50.798;7.302;2022-10-22T01:33:20;10.6;;;4.8;;
44126;SDS011;29786;50.798;7.302;2022-10-22T01:34:19;11.9;;;5;;
44126;SDS011;29786;50.798;7.302;2022-10-22T01:35:21;8;;;4.5;;
44126;SDS011;29786;50.798;7.302;2022-10-22T01:36:20;9.6;;;4.5;;
44126;SDS011;29786;50.798;7.302;2022-10-22T01:37:20;8.3;;;5.1;;
44126;SDS011;29786;50.798;7.302;2022-10-22T01:38:20;8.1;;;4.8;;
44126;SDS011;29786;50.798;7.302;2022-10-22T01:39:19;7.1;;;4.2;;
44126;SDS011;29786;50.798;7.302;2022-10-22T01:40:19;6;;;4.8;;
44126;SDS011;29786;50.798;7.302;2022-10-22T01:41:19;5.7;;;4.5;;
44126;SDS011;29786;50.798;7.302;2022-10-22T01:42:20;8.8;;;5.1;;
44126;SDS011;29786;50.798;7.302;2022-10-22T01:43:19;8.3;;;5.3;;
44126;SDS011;29786;50.798;7.302;2022-10-22T01:44:22;9.5;;;5.3;;
44126;SDS011;29786;50.798;7.302;2022-10-22T01:45:19;9.9;;;5.4;;
44126;SDS011;29786;50.798;7.302;2022-10-22T01:46:20;10;;;4.8;;
44126;SDS011;29786;50.798;7.302;2022-10-22T01:47:27;8.9;;;5;;
44126;SDS011;29786;50.798;7.302;2022-10-22T01:48:25;10.8;;;5.3;;
44126;SDS011;29786;50.798;7.302;2022-10-22T01:49:31;9.1;;;4.8;;
44126;SDS011;29786;50.798;7.302;2022-10-22T01:50:26;7.6;;;5.1;;
44126;SDS011;29786;50.798;7.302;2022-10-22T01:52:25;9.6;;;5.3;;
44126;SDS011;29786;50.798;7.302;2022-10-22T01:52:25;12.8;;;5.8;;
44126;SDS011;29786;50.798;7.302;2022-10-22T01:53:30;7.4;;;5.2;;
44126;SDS011;29786;50.798;7.302;2022-10-22T01:54:30;9;;;5.5;;
44126;SDS011;29786;50.798;7.302;2022-10-22T01:55:24;10.8;;;5.8;;
44126;SDS011;29786;50.798;7.302;2022-10-22T01:56:53;10.6;;;5.5;;
44126;SDS011;29786;50.798;7.302;2022-10-22T02:01:22;9.3;;;5.6;;
44126;SDS011;29786;50.798;7.302;2022-10-22T02:02:38;10.5;;;5.1;;
44126;SDS011;29786;50.798;7.302;2022-10-22T02:03:23;8.4;;;5.2;;
44126;SDS011;29786;50.798;7.302;2022-10-22T02:04:22;8.1;;;5.3;;
44126;SDS011;29786;50.798;7.302;2022-10-22T02:05:22;6.4;;;4.7;;
44126;SDS011;29786;50.798;7.302;2022-10-22T02:06:20;5.8;;;4.9;;
44126;SDS011;29786;50.798;7.302;2022-10-22T02:07:20;10.9;;;5.5;;
44126;SDS011;29786;50.798;7.302;2022-10-22T02:08:21;13.8;;;5.9;;
44126;SDS011;29786;50.798;7.302;2022-10-22T02:09:20;11;;;6;;
44126;SDS011;29786;50.798;7.302;2022-10-22T02:10:20;9.2;;;5.7;;
44126;SDS011;29786;50.798;7.302;2022-10-22T02:11:19;11.7;;;6.3;;
44126;SDS011;29786;50.798;7.302;2022-10-22T02:12:20;10.2;;;5.4;;
44126;SDS011;29786;50.798;7.302;2022-10-22T02:13:21;9.3;;;5.5;;
44126;SDS011;29786;50.798;7.302;2022-10-22T02:14:20;11.8;;;6.4;;
44126;SDS011;29786;50.798;7.302;2022-10-22T02:15:20;10;;;6.4;;
44126;SDS011;29786;50.798;7.302;2022-10-22T02:16:23;9.9;;;5.6;;
44126;SDS011;29786;50.798;7.302;2022-10-22T02:17:20;12.8;;;5.7;;
44126;SDS011;29786;50.798;7.302;2022-10-22T02:18:20;7.8;;;4.9;;
44126;SDS011;29786;50.798;7.302;2022-10-22T02:19:25;9.7;;;6.1;;
44126;SDS011;29786;50.798;7.302;2022-10-22T02:20:22;10.5;;;6.1;;
44126;SDS011;29786;50.798;7.302;2022-10-22T02:21:19;11.2;;;5.7;;
44126;SDS011;29786;50.798;7.302;2022-10-22T02:22:19;7.5;;;5.1;;
44126;SDS011;29786;50.798;7.302;2022-10-22T02:23:19;12.9;;;6;;
44126;SDS011;29786;50.798;7.302;2022-10-22T02:24:19;9.9;;;5.3;;
44126;SDS011;29786;50.798;7.302;2022-10-22T02:25:21;7.6;;;5.8;;
44126;SDS011;29786;50.798;7.302;2022-10-22T02:26:23;11.2;;;5.9;;
44126;SDS011;29786;50.798;7.302;2022-10-22T02:27:22;9.2;;;5;;
44126;SDS011;29786;50.798;7.302;2022-10-22T02:28:22;11.5;;;5.5;;
44126;SDS011;29786;50.798;7.302;2022-10-22T02:29:21;13.1;;;5.8;;
44126;SDS011;29786;50.798;7.302;2022-10-22T02:30:20;9.4;;;5.8;;
44126;SDS011;29786;50.798;7.302;2022-10-22T02:31:22;7.9;;;5.6;;
44126;SDS011;29786;50.798;7.302;2022-10-22T02:32:20;10.5;;;5.8;;
44126;SDS011;29786;50.798;7.302;2022-10-22T02:33:21;10.5;;;6;;
44126;SDS011;29786;50.798;7.302;2022-10-22T02:34:20;9.3;;;5.2;;
44126;SDS011;29786;50.798;7.302;2022-10-22T02:35:20;6.7;;;5.3;;
44126;SDS011;29786;50.798;7.302;2022-10-22T02:36:19;6.9;;;5.6;;
44126;SDS011;29786;50.798;7.302;2022-10-22T02:37:19;10.5;;;5.8;;
44126;SDS011;29786;50.798;7.302;2022-10-22T02:38:19;14.1;;;6.1;;
44126;SDS011;29786;50.798;7.302;2022-10-22T02:39:19;10;;;5.6;;
44126;SDS011;29786;50.798;7.302;2022-10-22T02:40:19;9.5;;;5.9;;
44126;SDS011;29786;50.798;7.302;2022-10-22T02:41:19;10.6;;;6.5;;
44126;SDS011;29786;50.798;7.302;2022-10-22T02:42:19;8.8;;;5.9;;
44126;SDS011;29786;50.798;7.302;2022-10-22T02:43:19;7.9;;;6.4;;
44126;SDS011;29786;50.798;7.302;2022-10-22T02:44:20;9.9;;;5.9;;
44126;SDS011;29786;50.798;7.302;2022-10-22T02:45:19;8.8;;;6;;
44126;SDS011;29786;50.798;7.302;2022-10-22T02:46:19;14.1;;;6.3;;
44126;SDS011;29786;50.798;7.302;2022-10-22T02:47:19;10.4;;;6.3;;
44126;SDS011;29786;50.798;7.302;2022-10-22T02:48:19;9.5;;;5.9;;
44126;SDS011;29786;50.798;7.302;2022-10-22T02:49:19;7.9;;;5.7;;
44126;SDS011;29786;50.798;7.302;2022-10-22T02:50:19;10.8;;;6.5;;
44126;SDS011;29786;50.798;7.302;2022-10-22T02:51:19;10.8;;;6.6;;
44126;SDS011;29786;50.798;7.302;2022-10-22T02:52:19;11.6;;;6.7;;
44126;SDS011;29786;50.798;7.302;2022-10-22T02:53:19;9.9;;;6.3;;
44126;SDS011;29786;50.798;7.302;2022-10-22T02:54:19;10.4;;;6.6;;
44126;SDS011;29786;50.798;7.302;2022-10-22T02:55:19;11.6;;;6.6;;
44126;SDS011;29786;50.798;7.302;2022-10-22T02:56:19;12.3;;;6.6;;
44126;SDS011;29786;50.798;7.302;2022-10-22T02:57:19;11;;;6.6;;
44126;SDS011;29786;50.798;7.302;2022-10-22T02:58:19;10.1;;;6.1;;
44126;SDS011;29786;50.798;7.302;2022-10-22T02:59:19;8.2;;;5.9;;
44126;SDS011;29786;50.798;7.302;2022-10-22T03:00:20;10.4;;;6.9;;
44126;SDS011;29786;50.798;7.302;2022-10-22T03:01:19;12.7;;;7;;
44126;SDS011;29786;50.798;7.302;2022-10-22T03:02:19;11.1;;;7;;
44126;SDS011;29786;50.798;7.302;2022-10-22T03:03:19;11.9;;;6.6;;
44126;SDS011;29786;50.798;7.302;2022-10-22T03:04:19;9.6;;;6.5;;
44126;SDS011;29786;50.798;7.302;2022-10-22T03:05:19;11.6;;;6.7;;
44126;SDS011;29786;50.798;7.302;2022-10-22T03:06:19;12.4;;;7.1;;
44126;SDS011;29786;50.798;7.302;2022-10-22T03:07:19;12.1;;;6.4;;
44126;SDS011;29786;50.798;7.302;2022-10-22T03:08:19;12.4;;;6.9;;
44126;SDS011;29786;50.798;7.302;2022-10-22T03:09:19;14.5;;;7.2;;
44126;SDS011;29786;50.798;7.302;2022-10-22T03:10:19;12.5;;;6.7;;
44126;SDS011;29786;50.798;7.302;2022-10-22T03:11:20;11.7;;;7.2;;
44126;SDS011;29786;50.798;7.302;2022-10-22T03:12:19;13.2;;;7.8;;
44126;SDS011;29786;50.798;7.302;2022-10-22T03:13:19;10.9;;;7.5;;
44126;SDS011;29786;50.798;7.302;2022-10-22T03:14:19;12.9;;;7.1;;
44126;SDS011;29786;50.798;7.302;2022-10-22T03:15:19;10.9;;;7.5;;
44126;SDS011;29786;50.798;7.302;2022-10-22T03:16:19;13.3;;;7.9;;
44126;SDS011;29786;50.798;7.302;2022-10-22T03:17:19;10.5;;;6.8;;
44126;SDS011;29786;50.798;7.302;2022-10-22T03:18:19;11.4;;;7.1;;
44126;SDS011;29786;50.798;7.302;2022-10-22T03:19:19;15.2;;;7.5;;
44126;SDS011;29786;50.798;7.302;2022-10-22T03:20:19;16.1;;;7.3;;
44126;SDS011;29786;50.798;7.302;2022-10-22T03:21:23;10.1;;;7.6;;
44126;SDS011;29786;50.798;7.302;2022-10-22T03:22:21;12;;;6.7;;
44126;SDS011;29786;50.798;7.302;2022-10-22T03:23:19;12.1;;;7.6;;
44126;SDS011;29786;50.798;7.302;2022-10-22T03:24:25;12.6;;;7.6;;
44126;SDS011;29786;50.798;7.302;2022-10-22T03:25:20;11;;;6.8;;
44126;SDS011;29786;50.798;7.302;2022-10-22T03:26:19;12;;;6.6;;
44126;SDS011;29786;50.798;7.302;2022-10-22T03:27:20;11.2;;;7.3;;
44126;SDS011;29786;50.798;7.302;2022-10-22T03:28:19;13.8;;;7.9;;
44126;SDS011;29786;50.798;7.302;2022-10-22T03:29:20;13.5;;;7.6;;
44126;SDS011;29786;50.798;7.302;2022-10-22T03:30:20;11.6;;;6.9;;
44126;SDS011;29786;50.798;7.302;2022-10-22T03:31:19;15;;;6.9;;
44126;SDS011;29786;50.798;7.302;2022-10-22T03:32:19;14;;;7.7;;
44126;SDS011;29786;50.798;7.302;2022-10-22T03:33:19;11.5;;;7;;
44126;SDS011;29786;50.798;7.302;2022-10-22T03:34:20;12.5;;;7.5;;
44126;SDS011;29786;50.798;7.302;2022-10-22T03:35:19;11.3;;;7.3;;
44126;SDS011;29786;50.798;7.302;2022-10-22T03:36:19;11.7;;;7.3;;
44126;SDS011;29786;50.798;7.302;2022-10-22T03:37:19;11.3;;;7.7;;
44126;SDS011;29786;50.798;7.302;2022-10-22T03:38:19;11.9;;;7.3;;
44126;SDS011;29786;50.798;7.302;2022-10-22T03:39:19;10;;;7.1;;
44126;SDS011;29786;50.798;7.302;2022-10-22T03:40:19;11.2;;;7.1;;
44126;SDS011;29786;50.798;7.302;2022-10-22T03:41:19;12.7;;;8.2;;
44126;SDS011;29786;50.798;7.302;2022-10-22T03:42:20;11.5;;;7.4;;
44126;SDS011;29786;50.798;7.302;2022-10-22T03:43:19;13.2;;;7.2;;
44126;SDS011;29786;50.798;7.302;2022-10-22T03:44:19;12.5;;;7.2;;
44126;SDS011;29786;50.798;7.302;2022-10-22T03:45:19;14.1;;;7.5;;
44126;SDS011;29786;50.798;7.302;2022-10-22T03:46:19;9;;;7.3;;
44126;SDS011;29786;50.798;7.302;2022-10-22T03:47:19;13.6;;;7.4;;
44126;SDS011;29786;50.798;7.302;2022-10-22T03:48:19;13.2;;;7.6;;
44126;SDS011;29786;50.798;7.302;2022-10-22T03:49:19;12.8;;;7.7;;
44126;SDS011;29786;50.798;7.302;2022-10-22T03:50:19;13.2;;;7.4;;
44126;SDS011;29786;50.798;7.302;2022-10-22T03:51:19;11.2;;;7;;
44126;SDS011;29786;50.798;7.302;2022-10-22T03:52:19;12.4;;;7;;
44126;SDS011;29786;50.798;7.302;2022-10-22T03:53:19;13.4;;;7.3;;
44126;SDS011;29786;50.798;7.302;2022-10-22T03:54:20;13;;;7.6;;
44126;SDS011;29786;50.798;7.302;2022-10-22T03:55:19;7.7;;;6.8;;
44126;SDS011;29786;50.798;7.302;2022-10-22T03:56:19;10.8;;;6.9;;
44126;SDS011;29786;50.798;7.302;2022-10-22T03:57:19;11.9;;;6.9;;
44126;SDS011;29786;50.798;7.302;2022-10-22T03:58:19;12.7;;;7.2;;
44126;SDS011;29786;50.798;7.302;2022-10-22T03:59:19;12.4;;;7.1;;
44126;SDS011;29786;50.798;7.302;2022-10-22T04:00:20;9.7;;;6.5;;
44126;SDS011;29786;50.798;7.302;2022-10-22T04:01:19;12.2;;;7.1;;
44126;SDS011;29786;50.798;7.302;2022-10-22T04:02:19;11.5;;;7.7;;
44126;SDS011;29786;50.798;7.302;2022-10-22T04:03:19;11.7;;;7.7;;
44126;SDS011;29786;50.798;7.302;2022-10-22T04:04:19;14.4;;;7.3;;
44126;SDS011;29786;50.798;7.302;2022-10-22T04:05:19;12.2;;;7.5;;
44126;SDS011;29786;50.798;7.302;2022-10-22T04:06:19;11.6;;;7.2;;
44126;SDS011;29786;50.798;7.302;2022-10-22T04:07:19;11.9;;;7.4;;
44126;SDS011;29786;50.798;7.302;2022-10-22T04:08:19;11.9;;;7.6;;
44126;SDS011;29786;50.798;7.302;2022-10-22T04:09:19;12.2;;;7.8;;
44126;SDS011;29786;50.798;7.302;2022-10-22T04:10:20;11.5;;;7.3;;
44126;SDS011;29786;50.798;7.302;2022-10-22T04:11:19;11.7;;;7.3;;
44126;SDS011;29786;50.798;7.302;2022-10-22T04:12:19;10.8;;;6.8;;
44126;SDS011;29786;50.798;7.302;2022-10-22T04:13:20;10.9;;;7.3;;
44126;SDS011;29786;50.798;7.302;2022-10-22T04:14:20;10.7;;;7.2;;
44126;SDS011;29786;50.798;7.302;2022-10-22T04:15:20;14.8;;;7;;
44126;SDS011;29786;50.798;7.302;2022-10-22T04:16:20;10.7;;;7.2;;
44126;SDS011;29786;50.798;7.302;2022-10-22T04:17:20;12.4;;;7.1;;
44126;SDS011;29786;50.798;7.302;2022-10-22T04:18:20;9.9;;;8;;
44126;SDS011;29786;50.798;7.302;2022-10-22T04:19:20;13.7;;;7.4;;
44126;SDS011;29786;50.798;7.302;2022-10-22T04:20:20;14.8;;;7.4;;
44126;SDS011;29786;50.798;7.302;2022-10-22T04:21:20;11.6;;;7.2;;
44126;SDS011;29786;50.798;7.302;2022-10-22T04:22:19;11.6;;;7.3;;
44126;SDS011;29786;50.798;7.302;2022-10-22T04:23:19;10;;;6.8;;
44126;SDS011;29786;50.798;7.302;2022-10-22T04:24:19;14.2;;;8.4;;
44126;SDS011;29786;50.798;7.302;2022-10-22T04:25:19;14.6;;;7.7;;
44126;SDS011;29786;50.798;7.302;2022-10-22T04:26:19;12.3;;;7.8;;
44126;SDS011;29786;50.798;7.302;2022-10-22T04:27:19;13;;;8.3;;
44126;SDS011;29786;50.798;7.302;2022-10-22T04:28:19;12.4;;;7.9;;
44126;SDS011;29786;50.798;7.302;2022-10-22T04:29:19;10;;;7.4;;
44126;SDS011;29786;50.798;7.302;2022-10-22T04:30:19;14.2;;;7.8;;
44126;SDS011;29786;50.798;7.302;2022-10-22T04:31:21;10.4;;;7.7;;
44126;SDS011;29786;50.798;7.302;2022-10-22T04:32:19;11.1;;;8.3;;
44126;SDS011;29786;50.798;7.302;2022-10-22T04:33:19;12.2;;;7.9;;
44126;SDS011;29786;50.798;7.302;2022-10-22T04:34:20;14.5;;;8.3;;
44126;SDS011;29786;50.798;7.302;2022-10-22T04:35:20;13.5;;;8.5;;
44126;SDS011;29786;50.798;7.302;2022-10-22T04:36:19;10.5;;;7.8;;
44126;SDS011;29786;50.798;7.302;2022-10-22T04:37:20;14;;;8.6;;
44126;SDS011;29786;50.798;7.302;2022-10-22T04:38:20;12.7;;;8.2;;
44126;SDS011;29786;50.798;7.302;2022-10-22T04:39:19;14.8;;;8.2;;
44126;SDS011;29786;50.798;7.302;2022-10-22T04:40:20;17.3;;;8.8;;
44126;SDS011;29786;50.798;7.302;2022-10-22T04:41:21;13.9;;;8.6;;
44126;SDS011;29786;50.798;7.302;2022-10-22T04:42:19;12;;;8.2;;
44126;SDS011;29786;50.798;7.302;2022-10-22T04:43:19;12.2;;;8.5;;
44126;SDS011;29786;50.798;7.302;2022-10-22T04:44:19;10.1;;;7.7;;
44126;SDS011;29786;50.798;7.302;2022-10-22T04:45:19;11;;;7.9;;
44126;SDS011;29786;50.798;7.302;2022-10-22T04:46:19;11.5;;;8.2;;
44126;SDS011;29786;50.798;7.302;2022-10-22T04:47:19;13.4;;;8.5;;
44126;SDS011;29786;50.798;7.302;2022-10-22T04:48:19;14.3;;;8.5;;
44126;SDS011;29786;50.798;7.302;2022-10-22T04:49:19;13.7;;;8.9;;
44126;SDS011;29786;50.798;7.302;2022-10-22T04:50:19;12;;;8.4;;
44126;SDS011;29786;50.798;7.302;2022-10-22T04:51:20;12.3;;;8.5;;
44126;SDS011;29786;50.798;7.302;2022-10-22T04:52:19;11.4;;;8;;
44126;SDS011;29786;50.798;7.302;2022-10-22T04:53:19;16.7;;;9.1;;
44126;SDS011;29786;50.798;7.302;2022-10-22T04:54:19;12.3;;;8.7;;
44126;SDS011;29786;50.798;7.302;2022-10-22T04:55:19;15.2;;;9.4;;
44126;SDS011;29786;50.798;7.302;2022-10-22T04:56:21;12.3;;;9.1;;
44126;SDS011;29786;50.798;7.302;2022-10-22T04:57:19;15.2;;;9.1;;
44126;SDS011;29786;50.798;7.302;2022-10-22T04:58:19;13.1;;;7.9;;
44126;SDS011;29786;50.798;7.302;2022-10-22T04:59:19;13.3;;;8.1;;
44126;SDS011;29786;50.798;7.302;2022-10-22T05:00:19;13.5;;;9;;
44126;SDS011;29786;50.798;7.302;2022-10-22T05:01:21;15.3;;;8.9;;
44126;SDS011;29786;50.798;7.302;2022-10-22T05:02:19;12.1;;;8.6;;
44126;SDS011;29786;50.798;7.302;2022-10-22T05:03:19;15.6;;;9.7;;
44126;SDS011;29786;50.798;7.302;2022-10-22T05:04:19;11.2;;;7.7;;
44126;SDS011;29786;50.798;7.302;2022-10-22T05:05:19;14.9;;;8.7;;
44126;SDS011;29786;50.798;7.302;2022-10-22T05:06:20;12.7;;;8.5;;
44126;SDS011;29786;50.798;7.302;2022-10-22T05:07:20;14.5;;;8.4;;
44126;SDS011;29786;50.798;7.302;2022-10-22T05:08:19;16;;;9.2;;
44126;SDS011;29786;50.798;7.302;2022-10-22T05:09:20;14.4;;;8.4;;
44126;SDS011;29786;50.798;7.302;2022-10-22T05:10:19;14.7;;;9.1;;
44126;SDS011;29786;50.798;7.302;2022-10-22T05:11:20;12.5;;;8.7;;
44126;SDS011;29786;50.798;7.302;2022-10-22T05:12:20;13.9;;;9;;
44126;SDS011;29786;50.798;7.302;2022-10-22T05:13:19;14.7;;;8.9;;
44126;SDS011;29786;50.798;7.302;2022-10-22T05:14:21;12.5;;;8.8;;
44126;SDS011;29786;50.798;7.302;2022-10-22T05:15:19;10.4;;;8.1;;
44126;SDS011;29786;50.798;7.302;2022-10-22T05:16:19;15.2;;;8.7;;
44126;SDS011;29786;50.798;7.302;2022-10-22T05:17:19;12.7;;;9.2;;
44126;SDS011;29786;50.798;7.302;2022-10-22T05:18:19;12.1;;;8.4;;
44126;SDS011;29786;50.798;7.302;2022-10-22T05:19:21;12.9;;;7.7;;
44126;SDS011;29786;50.798;7.302;2022-10-22T05:20:19;11.5;;;8.5;;
44126;SDS011;29786;50.798;7.302;2022-10-22T05:21:20;14.5;;;8.8;;
44126;SDS011;29786;50.798;7.302;2022-10-22T05:22:19;18.1;;;9.7;;
44126;SDS011;29786;50.798;7.302;2022-10-22T05:23:19;14.9;;;8.5;;
44126;SDS011;29786;50.798;7.302;2022-10-22T05:24:20;12;;;8.9;;
44126;SDS011;29786;50.798;7.302;2022-10-22T05:25:19;16.2;;;8.8;;
44126;SDS011;29786;50.798;7.302;2022-10-22T05:26:20;14;;;8.6;;
44126;SDS011;29786;50.798;7.302;2022-10-22T05:27:19;13;;;8.5;;
44126;SDS011;29786;50.798;7.302;2022-10-22T05:28:19;13.6;;;8.4;;
44126;SDS011;29786;50.798;7.302;2022-10-22T05:29:19;18.5;;;9;;
44126;SDS011;29786;50.798;7.302;2022-10-22T05:30:19;12.8;;;7.9;;
44126;SDS011;29786;50.798;7.302;2022-10-22T05:31:19;14.9;;;9.5;;
44126;SDS011;29786;50.798;7.302;2022-10-22T05:32:19;11.3;;;8.4;;
44126;SDS011;29786;50.798;7.302;2022-10-22T05:33:19;15.2;;;8.9;;
44126;SDS011;29786;50.798;7.302;2022-10-22T05:34:19;11.4;;;7.8;;
44126;SDS011;29786;50.798;7.302;2022-10-22T05:35:19;12.9;;;7.3;;
44126;SDS011;29786;50.798;7.302;2022-10-22T05:36:20;17.8;;;9.6;;
44126;SDS011;29786;50.798;7.302;2022-10-22T05:37:19;14.5;;;9.1;;
44126;SDS011;29786;50.798;7.302;2022-10-22T05:38:20;12.1;;;8.8;;
44126;SDS011;29786;50.798;7.302;2022-10-22T05:39:19;10;;;7.9;;
44126;SDS011;29786;50.798;7.302;2022-10-22T05:40:19;13.7;;;8.7;;
44126;SDS011;29786;50.798;7.302;2022-10-22T05:41:21;15.3;;;9.3;;
44126;SDS011;29786;50.798;7.302;2022-10-22T05:42:20;13.3;;;9.1;;
44126;SDS011;29786;50.798;7.302;2022-10-22T05:43:20;13.8;;;9.5;;
44126;SDS011;29786;50.798;7.302;2022-10-22T05:44:19;13.7;;;8.8;;
44126;SDS011;29786;50.798;7.302;2022-10-22T05:45:19;13.5;;;8.9;;
44126;SDS011;29786;50.798;7.302;2022-10-22T05:46:20;13.1;;;8.6;;
44126;SDS011;29786;50.798;7.302;2022-10-22T05:47:19;17.2;;;9.3;;
44126;SDS011;29786;50.798;7.302;2022-10-22T05:48:19;11.5;;;8;;
44126;SDS011;29786;50.798;7.302;2022-10-22T05:49:19;14.5;;;8.8;;
44126;SDS011;29786;50.798;7.302;2022-10-22T05:50:20;13.5;;;8.5;;
44126;SDS011;29786;50.798;7.302;2022-10-22T05:51:20;13.9;;;9.3;;
44126;SDS011;29786;50.798;7.302;2022-10-22T05:52:19;12.4;;;9.2;;
44126;SDS011;29786;50.798;7.302;2022-10-22T05:53:19;13.9;;;9.3;;
44126;SDS011;29786;50.798;7.302;2022-10-22T05:54:20;17.9;;;10.1;;
44126;SDS011;29786;50.798;7.302;2022-10-22T05:55:19;10.7;;;8.2;;
44126;SDS011;29786;50.798;7.302;2022-10-22T05:56:20;14.8;;;8.8;;
44126;SDS011;29786;50.798;7.302;2022-10-22T05:57:19;15.5;;;9.7;;
44126;SDS011;29786;50.798;7.302;2022-10-22T05:58:19;15.1;;;9.6;;
44126;SDS011;29786;50.798;7.302;2022-10-22T05:59:19;14.8;;;9.9;;
44126;SDS011;29786;50.798;7.302;2022-10-22T06:00:19;12.5;;;8.7;;
44126;SDS011;29786;50.798;7.302;2022-10-22T06:01:21;14;;;9;;
44126;SDS011;29786;50.798;7.302;2022-10-22T06:02:19;17.7;;;9.5;;
44126;SDS011;29786;50.798;7.302;2022-10-22T06:03:19;15.9;;;10;;
44126;SDS011;29786;50.798;7.302;2022-10-22T06:04:19;14.1;;;9.6;;
44126;SDS011;29786;50.798;7.302;2022-10-22T06:05:19;15.4;;;10.3;;
44126;SDS011;29786;50.798;7.302;2022-10-22T06:06:24;17;;;9.8;;
44126;SDS011;29786;50.798;7.302;2022-10-22T06:07:19;13;;;9.2;;
44126;SDS011;29786;50.798;7.302;2022-10-22T06:08:19;21.7;;;11.1;;
44126;SDS011;29786;50.798;7.302;2022-10-22T06:09:22;15.3;;;10.5;;
44126;SDS011;29786;50.798;7.302;2022-10-22T06:10:20;14.8;;;10.2;;
44126;SDS011;29786;50.798;7.302;2022-10-22T06:11:20;13.1;;;10.4;;
44126;SDS011;29786;50.798;7.302;2022-10-22T06:12:19;14.1;;;9.5;;
44126;SDS011;29786;50.798;7.302;2022-10-22T06:13:19;13.9;;;10.5;;
44126;SDS011;29786;50.798;7.302;2022-10-22T06:14:20;17.6;;;11.6;;
44126;SDS011;29786;50.798;7.302;2022-10-22T06:15:19;18.2;;;10.6;;
44126;SDS011;29786;50.798;7.302;2022-10-22T06:16:20;15.2;;;10.5;;
44126;SDS011;29786;50.798;7.302;2022-10-22T06:17:19;18.9;;;10.6;;